sensor_id;sensor_type;location;lat;lon;timestamp;P1;durP1;ratioP1;P2;durP2;ratioP2
10410;SDS011;5251;52.112;8.606;2022-12-29T00:01:34;1.08;;;1.00;;
10410;SDS011;5251;52.112;8.606;2022-12-29T00:04:01;1.30;;;1.20;;
10410;SDS011;5251;52.112;8.606;2022-12-29T00:06:27;1.20;;;1.10;;
10410;SDS011;5251;52.112;8.606;2022-12-29T00:08:53;1.17;;;1.08;;
10410;SDS011;5251;52.112;8.606;2022-12-29T00:11:25;1.20;;;1.10;;
10410;SDS011;5251;52.112;8.606;2022-12-29T00:13:52;1.48;;;1.23;;
10410;SDS011;5251;52.112;8.606;2022-12-29T00:16:37;0.90;;;0.90;;
10410;SDS011;5251;52.112;8.606;2022-12-29T00:19:05;1.30;;;1.10;;
10410;SDS011;5251;52.112;8.606;2022-12-29T00:21:30;2.28;;;1.23;;
10410;SDS011;5251;52.112;8.606;2022-12-29T00:24:16;0.95;;;0.90;;
10410;SDS011;5251;52.112;8.606;2022-12-29T00:27:03;1.10;;;1.00;;
10410;SDS011;5251;52.112;8.606;2022-12-29T00:29:54;3.60;;;1.75;;
10410;SDS011;5251;52.112;8.606;2022-12-29T00:32:38;1.50;;;1.30;;
10410;SDS011;5251;52.112;8.606;2022-12-29T00:35:25;1.20;;;1.10;;
10410;SDS011;5251;52.112;8.606;2022-12-29T00:38:01;2.08;;;1.20;;
10410;SDS011;5251;52.112;8.606;2022-12-29T00:40:47;1.58;;;1.02;;
10410;SDS011;5251;52.112;8.606;2022-12-29T00:43:31;1.67;;;1.00;;
10410;SDS011;5251;52.112;8.606;2022-12-29T00:46:15;1.10;;;1.00;;
10410;SDS011;5251;52.112;8.606;2022-12-29T00:48:40;1.92;;;1.10;;
10410;SDS011;5251;52.112;8.606;2022-12-29T00:51:24;1.13;;;1.02;;
10410;SDS011;5251;52.112;8.606;2022-12-29T00:53:50;1.15;;;1.02;;
10410;SDS011;5251;52.112;8.606;2022-12-29T00:56:16;1.10;;;1.00;;
10410;SDS011;5251;52.112;8.606;2022-12-29T00:58:41;2.53;;;1.25;;
10410;SDS011;5251;52.112;8.606;2022-12-29T01:01:07;0.95;;;0.93;;
10410;SDS011;5251;52.112;8.606;2022-12-29T01:03:34;1.25;;;0.90;;
10410;SDS011;5251;52.112;8.606;2022-12-29T01:06:05;1.10;;;1.00;;
10410;SDS011;5251;52.112;8.606;2022-12-29T01:08:32;1.30;;;1.10;;
10410;SDS011;5251;52.112;8.606;2022-12-29T01:11:09;1.10;;;1.00;;
10410;SDS011;5251;52.112;8.606;2022-12-29T01:13:35;1.55;;;0.90;;
10410;SDS011;5251;52.112;8.606;2022-12-29T01:16:03;1.63;;;0.93;;
10410;SDS011;5251;52.112;8.606;2022-12-29T01:18:29;0.90;;;0.90;;
10410;SDS011;5251;52.112;8.606;2022-12-29T01:20:58;1.33;;;0.93;;
10410;SDS011;5251;52.112;8.606;2022-12-29T01:23:29;1.20;;;1.10;;
10410;SDS011;5251;52.112;8.606;2022-12-29T01:25:55;1.02;;;0.93;;
10410;SDS011;5251;52.112;8.606;2022-12-29T01:28:21;1.42;;;1.00;;
10410;SDS011;5251;52.112;8.606;2022-12-29T01:30:47;0.80;;;0.80;;
10410;SDS011;5251;52.112;8.606;2022-12-29T01:33:13;1.08;;;0.98;;
10410;SDS011;5251;52.112;8.606;2022-12-29T01:35:39;1.05;;;0.90;;
10410;SDS011;5251;52.112;8.606;2022-12-29T01:38:04;0.98;;;0.93;;
10410;SDS011;5251;52.112;8.606;2022-12-29T01:40:30;1.10;;;0.90;;
10410;SDS011;5251;52.112;8.606;2022-12-29T01:42:56;0.90;;;0.90;;
10410;SDS011;5251;52.112;8.606;2022-12-29T01:45:21;1.00;;;0.90;;
10410;SDS011;5251;52.112;8.606;2022-12-29T01:47:48;1.10;;;0.80;;
10410;SDS011;5251;52.112;8.606;2022-12-29T01:52:54;1.30;;;1.20;;
10410;SDS011;5251;52.112;8.606;2022-12-29T01:55:27;1.20;;;0.90;;
10410;SDS011;5251;52.112;8.606;2022-12-29T01:57:56;1.27;;;1.08;;
10410;SDS011;5251;52.112;8.606;2022-12-29T02:00:26;0.70;;;0.70;;
10410;SDS011;5251;52.112;8.606;2022-12-29T02:02:51;1.05;;;0.80;;
10410;SDS011;5251;52.112;8.606;2022-12-29T02:05:28;0.73;;;0.70;;
10410;SDS011;5251;52.112;8.606;2022-12-29T02:07:59;0.93;;;0.70;;
10410;SDS011;5251;52.112;8.606;2022-12-29T02:10:26;0.85;;;0.75;;
10410;SDS011;5251;52.112;8.606;2022-12-29T02:12:54;0.63;;;0.63;;
10410;SDS011;5251;52.112;8.606;2022-12-29T02:15:46;0.73;;;0.73;;
10410;SDS011;5251;52.112;8.606;2022-12-29T02:37:12;0.90;;;0.80;;
10410;SDS011;5251;52.112;8.606;2022-12-29T02:42:41;0.50;;;0.50;;
10410;SDS011;5251;52.112;8.606;2022-12-29T02:47:48;0.98;;;0.57;;
10410;SDS011;5251;52.112;8.606;2022-12-29T02:50:16;0.75;;;0.70;;
10410;SDS011;5251;52.112;8.606;2022-12-29T02:52:59;0.50;;;0.50;;
10410;SDS011;5251;52.112;8.606;2022-12-29T02:55:27;0.40;;;0.40;;
10410;SDS011;5251;52.112;8.606;2022-12-29T03:00:37;0.50;;;0.50;;
10410;SDS011;5251;52.112;8.606;2022-12-29T03:11:25;0.60;;;0.60;;
10410;SDS011;5251;52.112;8.606;2022-12-29T03:17:18;0.65;;;0.60;;
10410;SDS011;5251;52.112;8.606;2022-12-29T03:19:51;0.93;;;0.88;;
10410;SDS011;5251;52.112;8.606;2022-12-29T03:22:23;1.55;;;1.17;;
10410;SDS011;5251;52.112;8.606;2022-12-29T03:24:54;0.90;;;0.65;;
10410;SDS011;5251;52.112;8.606;2022-12-29T03:27:36;0.40;;;0.40;;
10410;SDS011;5251;52.112;8.606;2022-12-29T03:30:07;0.40;;;0.40;;
10410;SDS011;5251;52.112;8.606;2022-12-29T03:32:45;0.60;;;0.60;;
10410;SDS011;5251;52.112;8.606;2022-12-29T03:35:17;0.65;;;0.65;;
10410;SDS011;5251;52.112;8.606;2022-12-29T03:38:06;0.30;;;0.30;;
10410;SDS011;5251;52.112;8.606;2022-12-29T03:40:45;1.00;;;0.43;;
10410;SDS011;5251;52.112;8.606;2022-12-29T03:43:14;1.10;;;0.40;;
10410;SDS011;5251;52.112;8.606;2022-12-29T03:45:41;0.57;;;0.40;;
10410;SDS011;5251;52.112;8.606;2022-12-29T03:48:07;0.35;;;0.35;;
10410;SDS011;5251;52.112;8.606;2022-12-29T03:50:33;0.50;;;0.50;;
10410;SDS011;5251;52.112;8.606;2022-12-29T03:52:58;0.40;;;0.40;;
10410;SDS011;5251;52.112;8.606;2022-12-29T03:55:24;0.50;;;0.50;;
10410;SDS011;5251;52.112;8.606;2022-12-29T03:57:49;0.50;;;0.50;;
10410;SDS011;5251;52.112;8.606;2022-12-29T04:00:15;0.85;;;0.30;;
10410;SDS011;5251;52.112;8.606;2022-12-29T04:02:41;0.50;;;0.50;;
10410;SDS011;5251;52.112;8.606;2022-12-29T04:05:07;0.50;;;0.50;;
10410;SDS011;5251;52.112;8.606;2022-12-29T04:07:32;0.70;;;0.70;;
10410;SDS011;5251;52.112;8.606;2022-12-29T04:09:58;1.02;;;0.50;;
10410;SDS011;5251;52.112;8.606;2022-12-29T04:12:23;0.75;;;0.47;;
10410;SDS011;5251;52.112;8.606;2022-12-29T04:14:49;0.60;;;0.50;;
10410;SDS011;5251;52.112;8.606;2022-12-29T04:17:15;0.63;;;0.50;;
10410;SDS011;5251;52.112;8.606;2022-12-29T04:19:40;0.70;;;0.55;;
10410;SDS011;5251;52.112;8.606;2022-12-29T04:22:06;0.75;;;0.60;;
10410;SDS011;5251;52.112;8.606;2022-12-29T04:24:31;0.45;;;0.45;;
10410;SDS011;5251;52.112;8.606;2022-12-29T04:26:57;0.77;;;0.60;;
10410;SDS011;5251;52.112;8.606;2022-12-29T04:29:22;0.30;;;0.30;;
10410;SDS011;5251;52.112;8.606;2022-12-29T04:31:48;0.90;;;0.73;;
10410;SDS011;5251;52.112;8.606;2022-12-29T04:34:14;0.68;;;0.40;;
10410;SDS011;5251;52.112;8.606;2022-12-29T04:36:39;0.77;;;0.43;;
10410;SDS011;5251;52.112;8.606;2022-12-29T04:39:05;0.80;;;0.70;;
10410;SDS011;5251;52.112;8.606;2022-12-29T04:41:31;0.68;;;0.60;;
10410;SDS011;5251;52.112;8.606;2022-12-29T04:43:57;1.42;;;0.70;;
10410;SDS011;5251;52.112;8.606;2022-12-29T04:46:23;0.57;;;0.50;;
10410;SDS011;5251;52.112;8.606;2022-12-29T04:48:48;0.50;;;0.50;;
10410;SDS011;5251;52.112;8.606;2022-12-29T04:51:14;0.57;;;0.57;;
10410;SDS011;5251;52.112;8.606;2022-12-29T04:53:39;0.60;;;0.60;;
10410;SDS011;5251;52.112;8.606;2022-12-29T04:56:05;1.08;;;0.60;;
10410;SDS011;5251;52.112;8.606;2022-12-29T04:58:31;0.75;;;0.55;;
10410;SDS011;5251;52.112;8.606;2022-12-29T05:00:56;1.73;;;0.50;;
10410;SDS011;5251;52.112;8.606;2022-12-29T05:03:22;2.17;;;0.77;;
10410;SDS011;5251;52.112;8.606;2022-12-29T05:05:47;1.50;;;0.70;;
10410;SDS011;5251;52.112;8.606;2022-12-29T05:08:13;0.65;;;0.65;;
10410;SDS011;5251;52.112;8.606;2022-12-29T05:10:39;0.95;;;0.60;;
10410;SDS011;5251;52.112;8.606;2022-12-29T05:13:05;1.42;;;0.75;;
10410;SDS011;5251;52.112;8.606;2022-12-29T05:15:30;0.70;;;0.70;;
10410;SDS011;5251;52.112;8.606;2022-12-29T05:17:56;0.65;;;0.50;;
10410;SDS011;5251;52.112;8.606;2022-12-29T05:20:21;1.77;;;0.60;;
10410;SDS011;5251;52.112;8.606;2022-12-29T05:22:47;1.88;;;0.50;;
10410;SDS011;5251;52.112;8.606;2022-12-29T05:25:13;2.25;;;0.70;;
10410;SDS011;5251;52.112;8.606;2022-12-29T05:27:38;0.60;;;0.60;;
10410;SDS011;5251;52.112;8.606;2022-12-29T05:30:04;0.98;;;0.60;;
10410;SDS011;5251;52.112;8.606;2022-12-29T05:32:30;0.50;;;0.50;;
10410;SDS011;5251;52.112;8.606;2022-12-29T05:34:55;0.95;;;0.65;;
10410;SDS011;5251;52.112;8.606;2022-12-29T05:37:21;0.60;;;0.60;;
10410;SDS011;5251;52.112;8.606;2022-12-29T05:39:46;0.60;;;0.60;;
10410;SDS011;5251;52.112;8.606;2022-12-29T05:42:12;0.85;;;0.70;;
10410;SDS011;5251;52.112;8.606;2022-12-29T05:44:37;0.60;;;0.60;;
10410;SDS011;5251;52.112;8.606;2022-12-29T05:50:25;0.55;;;0.55;;
10410;SDS011;5251;52.112;8.606;2022-12-29T05:52:51;1.30;;;0.60;;
10410;SDS011;5251;52.112;8.606;2022-12-29T05:55:16;1.15;;;0.50;;
10410;SDS011;5251;52.112;8.606;2022-12-29T05:57:42;0.60;;;0.50;;
10410;SDS011;5251;52.112;8.606;2022-12-29T06:00:08;0.40;;;0.40;;
10410;SDS011;5251;52.112;8.606;2022-12-29T06:02:34;0.50;;;0.50;;
10410;SDS011;5251;52.112;8.606;2022-12-29T06:04:59;0.50;;;0.50;;
10410;SDS011;5251;52.112;8.606;2022-12-29T06:07:25;0.40;;;0.40;;
10410;SDS011;5251;52.112;8.606;2022-12-29T06:09:51;1.65;;;0.65;;
10410;SDS011;5251;52.112;8.606;2022-12-29T06:12:16;1.48;;;0.60;;
10410;SDS011;5251;52.112;8.606;2022-12-29T06:14:42;0.63;;;0.50;;
10410;SDS011;5251;52.112;8.606;2022-12-29T06:17:07;1.80;;;0.93;;
10410;SDS011;5251;52.112;8.606;2022-12-29T06:19:33;0.40;;;0.40;;
10410;SDS011;5251;52.112;8.606;2022-12-29T06:21:59;2.05;;;0.95;;
10410;SDS011;5251;52.112;8.606;2022-12-29T06:24:24;0.63;;;0.50;;
10410;SDS011;5251;52.112;8.606;2022-12-29T06:26:50;1.02;;;0.50;;
10410;SDS011;5251;52.112;8.606;2022-12-29T06:29:15;0.70;;;0.50;;
10410;SDS011;5251;52.112;8.606;2022-12-29T06:31:42;0.85;;;0.43;;
10410;SDS011;5251;52.112;8.606;2022-12-29T06:34:13;1.10;;;0.50;;
10410;SDS011;5251;52.112;8.606;2022-12-29T06:36:39;1.33;;;0.80;;
10410;SDS011;5251;52.112;8.606;2022-12-29T06:39:05;1.27;;;0.30;;
10410;SDS011;5251;52.112;8.606;2022-12-29T06:41:30;1.25;;;0.43;;
10410;SDS011;5251;52.112;8.606;2022-12-29T06:43:56;0.30;;;0.30;;
10410;SDS011;5251;52.112;8.606;2022-12-29T06:46:22;2.28;;;0.50;;
10410;SDS011;5251;52.112;8.606;2022-12-29T06:48:48;0.65;;;0.40;;
10410;SDS011;5251;52.112;8.606;2022-12-29T06:51:13;0.95;;;0.40;;
10410;SDS011;5251;52.112;8.606;2022-12-29T06:53:39;1.17;;;0.40;;
10410;SDS011;5251;52.112;8.606;2022-12-29T06:56:04;0.75;;;0.30;;
10410;SDS011;5251;52.112;8.606;2022-12-29T06:58:30;0.40;;;0.40;;
10410;SDS011;5251;52.112;8.606;2022-12-29T07:00:56;0.50;;;0.50;;
10410;SDS011;5251;52.112;8.606;2022-12-29T07:03:21;0.43;;;0.40;;
10410;SDS011;5251;52.112;8.606;2022-12-29T07:05:47;0.50;;;0.50;;
10410;SDS011;5251;52.112;8.606;2022-12-29T07:08:12;0.73;;;0.65;;
10410;SDS011;5251;52.112;8.606;2022-12-29T07:10:39;0.65;;;0.65;;
10410;SDS011;5251;52.112;8.606;2022-12-29T07:13:04;0.80;;;0.80;;
10410;SDS011;5251;52.112;8.606;2022-12-29T07:15:32;0.75;;;0.75;;
10410;SDS011;5251;52.112;8.606;2022-12-29T07:17:58;0.57;;;0.57;;
10410;SDS011;5251;52.112;8.606;2022-12-29T07:20:24;1.05;;;0.65;;
10410;SDS011;5251;52.112;8.606;2022-12-29T07:22:49;0.77;;;0.77;;
10410;SDS011;5251;52.112;8.606;2022-12-29T07:25:15;0.93;;;0.73;;
10410;SDS011;5251;52.112;8.606;2022-12-29T07:27:40;1.70;;;0.70;;
10410;SDS011;5251;52.112;8.606;2022-12-29T07:30:06;0.70;;;0.70;;
10410;SDS011;5251;52.112;8.606;2022-12-29T07:32:33;1.05;;;0.70;;
10410;SDS011;5251;52.112;8.606;2022-12-29T07:34:59;3.47;;;1.00;;
10410;SDS011;5251;52.112;8.606;2022-12-29T07:37:24;3.85;;;0.90;;
10410;SDS011;5251;52.112;8.606;2022-12-29T07:39:50;2.22;;;1.10;;
10410;SDS011;5251;52.112;8.606;2022-12-29T07:42:16;3.97;;;1.05;;
10410;SDS011;5251;52.112;8.606;2022-12-29T07:44:41;1.52;;;0.90;;
10410;SDS011;5251;52.112;8.606;2022-12-29T07:47:07;2.58;;;1.20;;
10410;SDS011;5251;52.112;8.606;2022-12-29T07:49:32;2.38;;;1.17;;
10410;SDS011;5251;52.112;8.606;2022-12-29T07:51:58;1.65;;;0.88;;
10410;SDS011;5251;52.112;8.606;2022-12-29T07:54:24;2.33;;;0.90;;
10410;SDS011;5251;52.112;8.606;2022-12-29T07:56:49;1.05;;;0.70;;
10410;SDS011;5251;52.112;8.606;2022-12-29T07:59:15;2.95;;;1.30;;
10410;SDS011;5251;52.112;8.606;2022-12-29T08:01:40;3.25;;;1.25;;
10410;SDS011;5251;52.112;8.606;2022-12-29T08:04:06;4.38;;;1.40;;
10410;SDS011;5251;52.112;8.606;2022-12-29T08:06:32;1.13;;;0.63;;
10410;SDS011;5251;52.112;8.606;2022-12-29T08:08:57;1.58;;;1.00;;
10410;SDS011;5251;52.112;8.606;2022-12-29T08:11:25;2.33;;;1.00;;
10410;SDS011;5251;52.112;8.606;2022-12-29T08:13:51;1.98;;;0.95;;
10410;SDS011;5251;52.112;8.606;2022-12-29T08:16:17;2.75;;;1.10;;
10410;SDS011;5251;52.112;8.606;2022-12-29T08:18:43;1.80;;;0.75;;
10410;SDS011;5251;52.112;8.606;2022-12-29T08:21:09;1.42;;;0.90;;
10410;SDS011;5251;52.112;8.606;2022-12-29T08:23:35;2.85;;;1.20;;
10410;SDS011;5251;52.112;8.606;2022-12-29T08:26:01;2.15;;;0.98;;
10410;SDS011;5251;52.112;8.606;2022-12-29T08:28:28;1.60;;;1.00;;
10410;SDS011;5251;52.112;8.606;2022-12-29T08:30:56;1.35;;;0.90;;
10410;SDS011;5251;52.112;8.606;2022-12-29T08:33:23;2.65;;;1.02;;
10410;SDS011;5251;52.112;8.606;2022-12-29T08:35:48;1.77;;;1.05;;
10410;SDS011;5251;52.112;8.606;2022-12-29T08:38:14;3.58;;;1.20;;
10410;SDS011;5251;52.112;8.606;2022-12-29T08:40:40;1.58;;;0.82;;
10410;SDS011;5251;52.112;8.606;2022-12-29T08:43:05;4.20;;;1.05;;
10410;SDS011;5251;52.112;8.606;2022-12-29T08:45:31;3.33;;;1.15;;
10410;SDS011;5251;52.112;8.606;2022-12-29T08:47:57;2.45;;;1.15;;
10410;SDS011;5251;52.112;8.606;2022-12-29T08:50:23;1.45;;;0.93;;
10410;SDS011;5251;52.112;8.606;2022-12-29T08:52:48;2.53;;;1.20;;
10410;SDS011;5251;52.112;8.606;2022-12-29T08:55:14;2.38;;;1.10;;
10410;SDS011;5251;52.112;8.606;2022-12-29T08:57:40;3.35;;;1.20;;
10410;SDS011;5251;52.112;8.606;2022-12-29T09:00:05;2.25;;;1.35;;
10410;SDS011;5251;52.112;8.606;2022-12-29T09:02:32;1.10;;;0.90;;
10410;SDS011;5251;52.112;8.606;2022-12-29T09:04:57;1.38;;;0.80;;
10410;SDS011;5251;52.112;8.606;2022-12-29T09:07:24;1.20;;;0.98;;
10410;SDS011;5251;52.112;8.606;2022-12-29T09:09:49;2.15;;;0.95;;
10410;SDS011;5251;52.112;8.606;2022-12-29T09:12:16;2.47;;;1.00;;
10410;SDS011;5251;52.112;8.606;2022-12-29T09:14:42;1.45;;;1.05;;
10410;SDS011;5251;52.112;8.606;2022-12-29T09:17:09;2.22;;;1.02;;
10410;SDS011;5251;52.112;8.606;2022-12-29T09:19:54;3.13;;;1.10;;
10410;SDS011;5251;52.112;8.606;2022-12-29T09:22:19;2.75;;;1.10;;
10410;SDS011;5251;52.112;8.606;2022-12-29T09:24:45;1.63;;;1.08;;
10410;SDS011;5251;52.112;8.606;2022-12-29T09:27:11;2.42;;;1.02;;
10410;SDS011;5251;52.112;8.606;2022-12-29T09:29:36;2.47;;;1.13;;
10410;SDS011;5251;52.112;8.606;2022-12-29T09:32:02;1.20;;;1.10;;
10410;SDS011;5251;52.112;8.606;2022-12-29T09:34:28;2.10;;;1.30;;
10410;SDS011;5251;52.112;8.606;2022-12-29T09:36:53;2.13;;;1.10;;
10410;SDS011;5251;52.112;8.606;2022-12-29T09:39:21;2.42;;;1.30;;
10410;SDS011;5251;52.112;8.606;2022-12-29T09:42:06;2.78;;;1.40;;
10410;SDS011;5251;52.112;8.606;2022-12-29T09:47:11;2.83;;;1.40;;
10410;SDS011;5251;52.112;8.606;2022-12-29T09:49:43;4.03;;;1.45;;
10410;SDS011;5251;52.112;8.606;2022-12-29T09:52:14;1.95;;;1.15;;
10410;SDS011;5251;52.112;8.606;2022-12-29T09:57:14;4.15;;;1.83;;
10410;SDS011;5251;52.112;8.606;2022-12-29T09:59:52;2.20;;;1.23;;
10410;SDS011;5251;52.112;8.606;2022-12-29T10:05:03;2.40;;;1.30;;
10410;SDS011;5251;52.112;8.606;2022-12-29T10:10:15;3.03;;;1.20;;
10410;SDS011;5251;52.112;8.606;2022-12-29T10:13:06;3.35;;;1.45;;
10410;SDS011;5251;52.112;8.606;2022-12-29T10:16:03;4.13;;;1.70;;
10410;SDS011;5251;52.112;8.606;2022-12-29T10:23:52;3.13;;;1.65;;
10410;SDS011;5251;52.112;8.606;2022-12-29T10:26:22;2.92;;;1.20;;
10410;SDS011;5251;52.112;8.606;2022-12-29T10:28:56;1.60;;;1.10;;
10410;SDS011;5251;52.112;8.606;2022-12-29T10:37:00;4.07;;;1.60;;
10410;SDS011;5251;52.112;8.606;2022-12-29T10:39:39;3.47;;;1.50;;
10410;SDS011;5251;52.112;8.606;2022-12-29T10:44:45;3.45;;;1.40;;
10410;SDS011;5251;52.112;8.606;2022-12-29T10:47:12;2.88;;;1.38;;
10410;SDS011;5251;52.112;8.606;2022-12-29T10:49:45;4.15;;;1.50;;
10410;SDS011;5251;52.112;8.606;2022-12-29T10:52:13;5.20;;;1.58;;
10410;SDS011;5251;52.112;8.606;2022-12-29T10:54:44;2.58;;;1.27;;
10410;SDS011;5251;52.112;8.606;2022-12-29T10:57:21;3.55;;;1.15;;
10410;SDS011;5251;52.112;8.606;2022-12-29T10:59:58;2.17;;;1.10;;
10410;SDS011;5251;52.112;8.606;2022-12-29T11:08:09;3.00;;;1.25;;
10410;SDS011;5251;52.112;8.606;2022-12-29T11:10:42;2.67;;;1.23;;
10410;SDS011;5251;52.112;8.606;2022-12-29T11:13:14;3.95;;;1.35;;
10410;SDS011;5251;52.112;8.606;2022-12-29T11:15:41;4.85;;;1.70;;
10410;SDS011;5251;52.112;8.606;2022-12-29T11:18:21;3.25;;;1.50;;
10410;SDS011;5251;52.112;8.606;2022-12-29T11:20:53;3.72;;;1.48;;
10410;SDS011;5251;52.112;8.606;2022-12-29T11:23:22;3.55;;;1.50;;
10410;SDS011;5251;52.112;8.606;2022-12-29T11:28:39;3.00;;;1.42;;
10410;SDS011;5251;52.112;8.606;2022-12-29T11:31:06;3.83;;;1.48;;
10410;SDS011;5251;52.112;8.606;2022-12-29T11:33:34;3.95;;;1.20;;
10410;SDS011;5251;52.112;8.606;2022-12-29T11:36:04;4.78;;;1.20;;
10410;SDS011;5251;52.112;8.606;2022-12-29T11:38:40;2.45;;;1.27;;
10410;SDS011;5251;52.112;8.606;2022-12-29T11:41:19;2.67;;;1.30;;
10410;SDS011;5251;52.112;8.606;2022-12-29T11:43:49;3.85;;;1.23;;
10410;SDS011;5251;52.112;8.606;2022-12-29T11:46:18;4.00;;;1.10;;
10410;SDS011;5251;52.112;8.606;2022-12-29T11:48:47;2.78;;;1.00;;
10410;SDS011;5251;52.112;8.606;2022-12-29T11:51:20;4.18;;;1.40;;
10410;SDS011;5251;52.112;8.606;2022-12-29T11:53:52;2.70;;;1.10;;
10410;SDS011;5251;52.112;8.606;2022-12-29T11:56:30;3.13;;;1.02;;
10410;SDS011;5251;52.112;8.606;2022-12-29T11:59:34;4.20;;;1.38;;
10410;SDS011;5251;52.112;8.606;2022-12-29T12:02:11;2.95;;;1.20;;
10410;SDS011;5251;52.112;8.606;2022-12-29T12:04:43;3.90;;;1.20;;
10410;SDS011;5251;52.112;8.606;2022-12-29T12:09:45;3.75;;;1.15;;
10410;SDS011;5251;52.112;8.606;2022-12-29T12:15:28;4.28;;;1.50;;
10410;SDS011;5251;52.112;8.606;2022-12-29T12:18:03;2.65;;;1.00;;
10410;SDS011;5251;52.112;8.606;2022-12-29T12:20:38;4.85;;;1.20;;
10410;SDS011;5251;52.112;8.606;2022-12-29T12:23:32;3.03;;;1.20;;
10410;SDS011;5251;52.112;8.606;2022-12-29T12:26:18;3.72;;;1.40;;
10410;SDS011;5251;52.112;8.606;2022-12-29T12:28:53;3.17;;;1.30;;
10410;SDS011;5251;52.112;8.606;2022-12-29T12:34:20;3.95;;;1.25;;
10410;SDS011;5251;52.112;8.606;2022-12-29T13:03:44;4.22;;;1.60;;
10410;SDS011;5251;52.112;8.606;2022-12-29T13:06:37;2.70;;;1.13;;
10410;SDS011;5251;52.112;8.606;2022-12-29T13:18:13;2.85;;;1.13;;
10410;SDS011;5251;52.112;8.606;2022-12-29T13:23:26;5.05;;;1.35;;
10410;SDS011;5251;52.112;8.606;2022-12-29T13:28:55;3.10;;;1.42;;
10410;SDS011;5251;52.112;8.606;2022-12-29T13:34:43;4.93;;;1.38;;
10410;SDS011;5251;52.112;8.606;2022-12-29T13:37:32;3.08;;;1.20;;
10410;SDS011;5251;52.112;8.606;2022-12-29T13:40:10;4.40;;;1.30;;
10410;SDS011;5251;52.112;8.606;2022-12-29T13:42:40;2.20;;;1.30;;
10410;SDS011;5251;52.112;8.606;2022-12-29T13:45:26;5.10;;;1.60;;
10410;SDS011;5251;52.112;8.606;2022-12-29T13:47:57;3.65;;;1.10;;
10410;SDS011;5251;52.112;8.606;2022-12-29T13:50:32;5.75;;;1.70;;
10410;SDS011;5251;52.112;8.606;2022-12-29T13:53:15;3.63;;;1.60;;
10410;SDS011;5251;52.112;8.606;2022-12-29T13:58:45;2.60;;;1.40;;
10410;SDS011;5251;52.112;8.606;2022-12-29T14:01:23;4.57;;;1.17;;
10410;SDS011;5251;52.112;8.606;2022-12-29T14:03:55;4.47;;;1.30;;
10410;SDS011;5251;52.112;8.606;2022-12-29T14:06:23;3.22;;;1.20;;
10410;SDS011;5251;52.112;8.606;2022-12-29T14:08:52;2.47;;;1.00;;
10410;SDS011;5251;52.112;8.606;2022-12-29T14:11:21;2.67;;;1.40;;
10410;SDS011;5251;52.112;8.606;2022-12-29T14:13:49;3.60;;;1.20;;
10410;SDS011;5251;52.112;8.606;2022-12-29T14:16:29;5.03;;;1.52;;
10410;SDS011;5251;52.112;8.606;2022-12-29T14:19:11;3.85;;;1.40;;
10410;SDS011;5251;52.112;8.606;2022-12-29T14:21:58;2.83;;;1.10;;
10410;SDS011;5251;52.112;8.606;2022-12-29T14:34:45;4.07;;;1.60;;
10410;SDS011;5251;52.112;8.606;2022-12-29T14:37:24;3.90;;;1.60;;
10410;SDS011;5251;52.112;8.606;2022-12-29T14:42:54;4.72;;;1.40;;
10410;SDS011;5251;52.112;8.606;2022-12-29T14:47:52;3.72;;;1.35;;
10410;SDS011;5251;52.112;8.606;2022-12-29T14:50:22;3.58;;;1.40;;
10410;SDS011;5251;52.112;8.606;2022-12-29T14:55:38;3.55;;;1.38;;
10410;SDS011;5251;52.112;8.606;2022-12-29T14:58:54;3.65;;;1.50;;
10410;SDS011;5251;52.112;8.606;2022-12-29T15:03:49;2.70;;;1.15;;
10410;SDS011;5251;52.112;8.606;2022-12-29T15:06:17;4.60;;;1.40;;
10410;SDS011;5251;52.112;8.606;2022-12-29T15:08:51;3.13;;;1.48;;
10410;SDS011;5251;52.112;8.606;2022-12-29T15:11:25;5.80;;;1.70;;
10410;SDS011;5251;52.112;8.606;2022-12-29T15:14:02;4.72;;;1.30;;
10410;SDS011;5251;52.112;8.606;2022-12-29T15:16:32;4.63;;;1.40;;
10410;SDS011;5251;52.112;8.606;2022-12-29T15:19:01;4.30;;;1.58;;
10410;SDS011;5251;52.112;8.606;2022-12-29T15:21:29;4.28;;;1.67;;
10410;SDS011;5251;52.112;8.606;2022-12-29T15:23:59;3.70;;;1.40;;
10410;SDS011;5251;52.112;8.606;2022-12-29T15:26:38;5.43;;;1.50;;
10410;SDS011;5251;52.112;8.606;2022-12-29T15:29:25;5.82;;;1.73;;
10410;SDS011;5251;52.112;8.606;2022-12-29T15:31:54;3.80;;;1.50;;
10410;SDS011;5251;52.112;8.606;2022-12-29T15:34:21;2.92;;;1.48;;
10410;SDS011;5251;52.112;8.606;2022-12-29T15:36:46;6.45;;;1.85;;
10410;SDS011;5251;52.112;8.606;2022-12-29T15:39:18;4.43;;;1.65;;
10410;SDS011;5251;52.112;8.606;2022-12-29T15:41:55;4.07;;;1.45;;
10410;SDS011;5251;52.112;8.606;2022-12-29T15:44:38;3.28;;;1.40;;
10410;SDS011;5251;52.112;8.606;2022-12-29T15:47:09;4.63;;;1.52;;
10410;SDS011;5251;52.112;8.606;2022-12-29T15:49:44;4.10;;;1.50;;
10410;SDS011;5251;52.112;8.606;2022-12-29T15:52:16;4.03;;;1.38;;
10410;SDS011;5251;52.112;8.606;2022-12-29T15:54:44;5.25;;;1.63;;
10410;SDS011;5251;52.112;8.606;2022-12-29T15:57:17;4.13;;;1.50;;
10410;SDS011;5251;52.112;8.606;2022-12-29T15:59:47;3.28;;;1.30;;
10410;SDS011;5251;52.112;8.606;2022-12-29T16:02:13;3.15;;;1.50;;
10410;SDS011;5251;52.112;8.606;2022-12-29T16:04:39;4.88;;;1.25;;
10410;SDS011;5251;52.112;8.606;2022-12-29T16:07:20;4.00;;;1.52;;
10410;SDS011;5251;52.112;8.606;2022-12-29T16:09:58;4.53;;;1.35;;
10410;SDS011;5251;52.112;8.606;2022-12-29T16:12:35;5.15;;;1.50;;
10410;SDS011;5251;52.112;8.606;2022-12-29T16:15:10;4.15;;;1.73;;
10410;SDS011;5251;52.112;8.606;2022-12-29T16:17:45;5.07;;;1.70;;
10410;SDS011;5251;52.112;8.606;2022-12-29T16:20:21;3.63;;;1.40;;
10410;SDS011;5251;52.112;8.606;2022-12-29T16:22:56;4.03;;;1.70;;
10410;SDS011;5251;52.112;8.606;2022-12-29T16:25:25;3.00;;;1.40;;
10410;SDS011;5251;52.112;8.606;2022-12-29T16:28:02;3.70;;;1.42;;
10410;SDS011;5251;52.112;8.606;2022-12-29T16:30:42;8.88;;;5.85;;
10410;SDS011;5251;52.112;8.606;2022-12-29T16:36:21;4.97;;;1.85;;
10410;SDS011;5251;52.112;8.606;2022-12-29T16:41:56;5.93;;;1.60;;
10410;SDS011;5251;52.112;8.606;2022-12-29T16:44:23;2.85;;;1.20;;
10410;SDS011;5251;52.112;8.606;2022-12-29T16:49:23;3.65;;;1.50;;
10410;SDS011;5251;52.112;8.606;2022-12-29T16:51:49;2.85;;;1.50;;
10410;SDS011;5251;52.112;8.606;2022-12-29T16:54:23;3.97;;;1.63;;
10410;SDS011;5251;52.112;8.606;2022-12-29T16:56:58;5.90;;;1.58;;
10410;SDS011;5251;52.112;8.606;2022-12-29T16:59:42;4.00;;;1.58;;
10410;SDS011;5251;52.112;8.606;2022-12-29T17:02:12;4.18;;;1.70;;
10410;SDS011;5251;52.112;8.606;2022-12-29T17:04:40;3.50;;;1.55;;
10410;SDS011;5251;52.112;8.606;2022-12-29T17:07:15;2.80;;;1.35;;
10410;SDS011;5251;52.112;8.606;2022-12-29T17:09:43;4.88;;;1.88;;
10410;SDS011;5251;52.112;8.606;2022-12-29T17:12:08;6.80;;;1.75;;
10410;SDS011;5251;52.112;8.606;2022-12-29T17:17:11;6.25;;;1.70;;
10410;SDS011;5251;52.112;8.606;2022-12-29T17:19:57;4.47;;;1.73;;
10410;SDS011;5251;52.112;8.606;2022-12-29T17:22:28;3.25;;;1.55;;
10410;SDS011;5251;52.112;8.606;2022-12-29T17:24:55;3.75;;;1.40;;
10410;SDS011;5251;52.112;8.606;2022-12-29T17:29:47;2.85;;;1.40;;
10410;SDS011;5251;52.112;8.606;2022-12-29T17:32:14;3.70;;;1.20;;
10410;SDS011;5251;52.112;8.606;2022-12-29T17:34:40;3.97;;;1.45;;
10410;SDS011;5251;52.112;8.606;2022-12-29T17:39:49;2.03;;;1.25;;
10410;SDS011;5251;52.112;8.606;2022-12-29T17:42:15;3.00;;;1.40;;
10410;SDS011;5251;52.112;8.606;2022-12-29T17:44:43;2.28;;;1.40;;
10410;SDS011;5251;52.112;8.606;2022-12-29T17:47:09;2.00;;;1.50;;
10410;SDS011;5251;52.112;8.606;2022-12-29T17:49:35;1.83;;;1.42;;
10410;SDS011;5251;52.112;8.606;2022-12-29T17:52:01;2.78;;;1.80;;
10410;SDS011;5251;52.112;8.606;2022-12-29T17:54:28;3.53;;;2.20;;
10410;SDS011;5251;52.112;8.606;2022-12-29T17:56:54;2.25;;;1.65;;
10410;SDS011;5251;52.112;8.606;2022-12-29T17:59:19;3.78;;;1.50;;
10410;SDS011;5251;52.112;8.606;2022-12-29T18:01:45;3.80;;;2.00;;
10410;SDS011;5251;52.112;8.606;2022-12-29T18:04:13;3.90;;;1.73;;
10410;SDS011;5251;52.112;8.606;2022-12-29T18:06:43;3.17;;;2.20;;
10410;SDS011;5251;52.112;8.606;2022-12-29T18:09:09;3.88;;;2.60;;